sensor_id;sensor_type;location;lat;lon;timestamp;pressure;altitude;pressure_sealevel;temperature;humidity
37710;BME280;60223;34.854;-92.408;2022-10-31T00:02:09;100160.58;;;26.40;31.41
37710;BME280;60223;34.854;-92.408;2022-10-31T00:04:34;100163.14;;;26.50;31.33
37710;BME280;60223;34.854;-92.408;2022-10-31T00:07:00;100163.08;;;26.24;31.56
37710;BME280;60223;34.854;-92.408;2022-10-31T00:09:26;100167.79;;;26.11;31.61
37710;BME280;60223;34.854;-92.408;2022-10-31T00:11:53;100170.84;;;26.31;31.37
37710;BME280;60223;34.854;-92.408;2022-10-31T00:14:17;100172.90;;;26.67;31.48
37710;BME280;60223;34.854;-92.408;2022-10-31T00:16:40;100177.03;;;26.77;30.79
37710;BME280;60223;34.854;-92.408;2022-10-31T00:19:10;100179.43;;;26.37;31.15
37710;BME280;60223;34.854;-92.408;2022-10-31T00:21:34;100184.94;;;26.47;31.06
37710;BME280;60223;34.854;-92.408;2022-10-31T00:31:16;100196.06;;;26.44;31.11
37710;BME280;60223;34.854;-92.408;2022-10-31T00:33:42;100202.40;;;26.54;30.64
37710;BME280;60223;34.854;-92.408;2022-10-31T00:36:07;100204.82;;;26.48;30.92
37710;BME280;60223;34.854;-92.408;2022-10-31T00:38:31;100206.74;;;26.30;31.41
37710;BME280;60223;34.854;-92.408;2022-10-31T00:40:54;100212.04;;;26.17;31.25
37710;BME280;60223;34.854;-92.408;2022-10-31T00:43:22;100213.57;;;26.04;31.35
37710;BME280;60223;34.854;-92.408;2022-10-31T00:45:48;100215.85;;;25.69;31.88
37710;BME280;60223;34.854;-92.408;2022-10-31T00:48:14;100220.11;;;27.31;30.38
37710;BME280;60223;34.854;-92.408;2022-10-31T00:50:37;100218.97;;;26.20;31.41
37710;BME280;60223;34.854;-92.408;2022-10-31T00:53:04;100220.64;;;26.11;31.07
37710;BME280;60223;34.854;-92.408;2022-10-31T00:55:29;100225.15;;;27.35;30.02
37710;BME280;60223;34.854;-92.408;2022-10-31T01:00:19;100224.30;;;26.94;30.99
37710;BME280;60223;34.854;-92.408;2022-10-31T01:02:47;100222.85;;;26.62;30.77
37710;BME280;60223;34.854;-92.408;2022-10-31T01:05:11;100220.15;;;26.58;30.78
37710;BME280;60223;34.854;-92.408;2022-10-31T01:07:39;100221.50;;;26.43;30.99
37710;BME280;60223;34.854;-92.408;2022-10-31T01:10:00;100222.71;;;26.60;30.81
37710;BME280;60223;34.854;-92.408;2022-10-31T01:12:28;100223.50;;;26.54;30.87
37710;BME280;60223;34.854;-92.408;2022-10-31T01:14:51;100224.86;;;26.48;30.94
37710;BME280;60223;34.854;-92.408;2022-10-31T01:17:18;100229.87;;;26.50;30.91
37710;BME280;60223;34.854;-92.408;2022-10-31T01:19:40;100232.75;;;26.64;31.02
37710;BME280;60223;34.854;-92.408;2022-10-31T01:22:07;100235.45;;;26.69;31.00
37710;BME280;60223;34.854;-92.408;2022-10-31T01:24:34;100236.27;;;26.32;31.11
37710;BME280;60223;34.854;-92.408;2022-10-31T01:26:57;100237.28;;;26.17;31.30
37710;BME280;60223;34.854;-92.408;2022-10-31T01:29:25;100236.31;;;26.16;31.25
37710;BME280;60223;34.854;-92.408;2022-10-31T01:31:51;100238.65;;;26.56;31.08
37710;BME280;60223;34.854;-92.408;2022-10-31T01:34:18;100237.11;;;26.41;30.96
37710;BME280;60223;34.854;-92.408;2022-10-31T01:36:42;100235.32;;;26.23;31.16
37710;BME280;60223;34.854;-92.408;2022-10-31T01:39:08;100233.32;;;26.49;30.88
37710;BME280;60223;34.854;-92.408;2022-10-31T01:41:35;100233.92;;;26.40;30.95
37710;BME280;60223;34.854;-92.408;2022-10-31T01:43:59;100232.62;;;26.72;30.88
37710;BME280;60223;34.854;-92.408;2022-10-31T01:46:26;100233.03;;;26.95;30.86
37710;BME280;60223;34.854;-92.408;2022-10-31T01:51:14;100234.12;;;26.90;30.29
37710;BME280;60223;34.854;-92.408;2022-10-31T01:53:39;100240.93;;;27.37;29.78
37710;BME280;60223;34.854;-92.408;2022-10-31T01:56:04;100242.15;;;27.09;30.32
37710;BME280;60223;34.854;-92.408;2022-10-31T01:58:28;100247.34;;;26.93;30.73
37710;BME280;60223;34.854;-92.408;2022-10-31T02:00:56;100244.59;;;26.55;30.58
37710;BME280;60223;34.854;-92.408;2022-10-31T02:03:21;100245.40;;;27.08;30.47
37710;BME280;60223;34.854;-92.408;2022-10-31T02:05:45;100247.31;;;26.72;30.67
37710;BME280;60223;34.854;-92.408;2022-10-31T02:08:15;100245.92;;;26.74;30.26
37710;BME280;60223;34.854;-92.408;2022-10-31T02:10:36;100244.62;;;26.09;31.00
37710;BME280;60223;34.854;-92.408;2022-10-31T02:13:03;100244.00;;;26.48;31.04
37710;BME280;60223;34.854;-92.408;2022-10-31T02:15:28;100243.38;;;26.64;30.49
37710;BME280;60223;34.854;-92.408;2022-10-31T02:17:52;100241.26;;;26.06;30.92
37710;BME280;60223;34.854;-92.408;2022-10-31T02:20:20;100240.43;;;25.85;31.05
37710;BME280;60223;34.854;-92.408;2022-10-31T02:22:54;100243.11;;;26.16;31.04
37710;BME280;60223;34.854;-92.408;2022-10-31T02:25:29;100246.84;;;26.34;31.09
37710;BME280;60223;34.854;-92.408;2022-10-31T02:27:46;100246.85;;;25.88;31.12
37710;BME280;60223;34.854;-92.408;2022-10-31T02:30:10;100247.76;;;26.19;31.05
37710;BME280;60223;34.854;-92.408;2022-10-31T02:32:29;100249.12;;;26.54;31.00
37710;BME280;60223;34.854;-92.408;2022-10-31T02:34:56;100250.96;;;25.79;31.92
37710;BME280;60223;34.854;-92.408;2022-10-31T02:37:21;100253.06;;;26.90;30.70
37710;BME280;60223;34.854;-92.408;2022-10-31T02:39:53;100250.83;;;26.13;31.17
37710;BME280;60223;34.854;-92.408;2022-10-31T02:42:13;100253.10;;;25.85;31.28
37710;BME280;60223;34.854;-92.408;2022-10-31T02:44:38;100253.57;;;26.68;30.35
37710;BME280;60223;34.854;-92.408;2022-10-31T02:46:58;100250.44;;;26.58;30.88
37710;BME280;60223;34.854;-92.408;2022-10-31T02:49:29;100250.84;;;26.67;30.69
37710;BME280;60223;34.854;-92.408;2022-10-31T02:51:49;100249.02;;;26.84;30.58
37710;BME280;60223;34.854;-92.408;2022-10-31T02:54:22;100252.59;;;26.67;30.69
37710;BME280;60223;34.854;-92.408;2022-10-31T02:56:40;100249.51;;;26.77;30.54
37710;BME280;60223;34.854;-92.408;2022-10-31T02:59:10;100249.38;;;26.96;30.65
37710;BME280;60223;34.854;-92.408;2022-10-31T03:01:41;100253.13;;;26.77;30.55
37710;BME280;60223;34.854;-92.408;2022-10-31T03:06:25;100262.28;;;26.69;30.73
37710;BME280;60223;34.854;-92.408;2022-10-31T03:08:53;100263.16;;;26.59;30.79
37710;BME280;60223;34.854;-92.408;2022-10-31T03:11:14;100263.26;;;26.62;30.79
37710;BME280;60223;34.854;-92.408;2022-10-31T03:16:09;100261.80;;;26.50;30.91
37710;BME280;60223;34.854;-92.408;2022-10-31T03:18:32;100261.93;;;26.63;31.01
37710;BME280;60223;34.854;-92.408;2022-10-31T03:20:59;100261.86;;;26.15;31.22
37710;BME280;60223;34.854;-92.408;2022-10-31T03:23:20;100263.75;;;26.41;30.99
37710;BME280;60223;34.854;-92.408;2022-10-31T03:25:47;100264.94;;;26.86;30.61
37710;BME280;60223;34.854;-92.408;2022-10-31T03:28:12;100267.59;;;26.72;30.51
37710;BME280;60223;34.854;-92.408;2022-10-31T03:30:39;100270.58;;;26.70;30.54
37710;BME280;60223;34.854;-92.408;2022-10-31T03:33:06;100269.15;;;26.94;30.50
37710;BME280;60223;34.854;-92.408;2022-10-31T03:35:28;100270.97;;;27.21;30.13
37710;BME280;60223;34.854;-92.408;2022-10-31T03:37:54;100265.52;;;26.75;30.36
37710;BME280;60223;34.854;-92.408;2022-10-31T03:40:21;100263.77;;;26.54;30.52
37710;BME280;60223;34.854;-92.408;2022-10-31T03:42:50;100262.44;;;26.83;30.72
37710;BME280;60223;34.854;-92.408;2022-10-31T03:45:14;100265.04;;;26.52;30.54
37710;BME280;60223;34.854;-92.408;2022-10-31T03:47:36;100265.21;;;26.61;31.00
37710;BME280;60223;34.854;-92.408;2022-10-31T03:50:01;100266.72;;;26.12;30.93
37710;BME280;60223;34.854;-92.408;2022-10-31T03:52:31;100267.46;;;26.82;30.67
37710;BME280;60223;34.854;-92.408;2022-10-31T03:54:57;100268.97;;;26.50;30.71
37710;BME280;60223;34.854;-92.408;2022-10-31T03:57:18;100272.59;;;26.72;30.68
37710;BME280;60223;34.854;-92.408;2022-10-31T03:59:46;100276.93;;;26.09;30.83
37710;BME280;60223;34.854;-92.408;2022-10-31T04:02:11;100279.17;;;26.57;30.52
37710;BME280;60223;34.854;-92.408;2022-10-31T04:04:36;100283.96;;;26.14;31.24
37710;BME280;60223;34.854;-92.408;2022-10-31T04:07:03;100283.24;;;26.46;30.58
37710;BME280;60223;34.854;-92.408;2022-10-31T04:09:26;100283.74;;;25.77;31.04
37710;BME280;60223;34.854;-92.408;2022-10-31T04:11:54;100284.57;;;25.71;31.07
37710;BME280;60223;34.854;-92.408;2022-10-31T04:14:16;100286.45;;;26.43;30.84
37710;BME280;60223;34.854;-92.408;2022-10-31T04:16:44;100290.13;;;25.75;31.22
37710;BME280;60223;34.854;-92.408;2022-10-31T04:19:08;100291.67;;;26.07;30.57
37710;BME280;60223;34.854;-92.408;2022-10-31T04:21:34;100293.95;;;26.02;31.15
37710;BME280;60223;34.854;-92.408;2022-10-31T04:23:59;100288.95;;;26.43;30.67
37710;BME280;60223;34.854;-92.408;2022-10-31T04:28:47;100286.89;;;25.71;31.40
37710;BME280;60223;34.854;-92.408;2022-10-31T04:31:15;100283.45;;;26.16;30.95
37710;BME280;60223;34.854;-92.408;2022-10-31T04:33:40;100281.09;;;25.81;31.22
37710;BME280;60223;34.854;-92.408;2022-10-31T04:36:02;100279.64;;;25.88;30.96
37710;BME280;60223;34.854;-92.408;2022-10-31T04:38:30;100276.86;;;25.47;31.61
37710;BME280;60223;34.854;-92.408;2022-10-31T04:40:56;100279.02;;;26.12;31.19
37710;BME280;60223;34.854;-92.408;2022-10-31T04:43:20;100282.52;;;26.20;30.78
37710;BME280;60223;34.854;-92.408;2022-10-31T04:45:47;100285.79;;;26.17;30.88
37710;BME280;60223;34.854;-92.408;2022-10-31T04:48:11;100285.70;;;26.21;30.74
37710;BME280;60223;34.854;-92.408;2022-10-31T04:50:38;100284.54;;;25.96;30.77
37710;BME280;60223;34.854;-92.408;2022-10-31T04:53:01;100281.63;;;25.79;30.94
37710;BME280;60223;34.854;-92.408;2022-10-31T04:55:27;100281.14;;;25.91;30.98
37710;BME280;60223;34.854;-92.408;2022-10-31T05:05:12;100282.71;;;25.39;31.42
37710;BME280;60223;34.854;-92.408;2022-10-31T05:07:39;100284.40;;;26.21;30.57
37710;BME280;60223;34.854;-92.408;2022-10-31T05:10:02;100279.32;;;25.70;31.08
37710;BME280;60223;34.854;-92.408;2022-10-31T05:12:25;100273.76;;;25.68;31.08
37710;BME280;60223;34.854;-92.408;2022-10-31T05:14:51;100274.03;;;26.19;30.81
37710;BME280;60223;34.854;-92.408;2022-10-31T05:17:19;100273.11;;;25.54;31.13
37710;BME280;60223;34.854;-92.408;2022-10-31T05:19:44;100273.31;;;25.81;30.89
37710;BME280;60223;34.854;-92.408;2022-10-31T05:22:09;100266.51;;;25.45;31.27
37710;BME280;60223;34.854;-92.408;2022-10-31T05:24:36;100266.92;;;25.93;30.96
37710;BME280;60223;34.854;-92.408;2022-10-31T05:27:01;100265.62;;;25.55;31.17
37710;BME280;60223;34.854;-92.408;2022-10-31T05:29:27;100261.84;;;25.61;31.08
37710;BME280;60223;34.854;-92.408;2022-10-31T05:31:52;100261.49;;;25.63;31.13
37710;BME280;60223;34.854;-92.408;2022-10-31T05:34:18;100259.48;;;24.90;31.81
37710;BME280;60223;34.854;-92.408;2022-10-31T05:36:50;100263.98;;;25.73;30.98
37710;BME280;60223;34.854;-92.408;2022-10-31T05:39:09;100263.52;;;25.54;31.08
37710;BME280;60223;34.854;-92.408;2022-10-31T05:41:34;100262.53;;;25.60;30.98
37710;BME280;60223;34.854;-92.408;2022-10-31T05:44:00;100259.80;;;25.48;31.37
37710;BME280;60223;34.854;-92.408;2022-10-31T05:46:26;100256.91;;;25.52;30.95
37710;BME280;60223;34.854;-92.408;2022-10-31T05:48:52;100258.73;;;25.68;30.75
37710;BME280;60223;34.854;-92.408;2022-10-31T05:51:15;100257.81;;;25.94;30.80
37710;BME280;60223;34.854;-92.408;2022-10-31T05:53:42;100256.43;;;25.53;30.90
37710;BME280;60223;34.854;-92.408;2022-10-31T05:56:08;100254.39;;;25.24;31.25
37710;BME280;60223;34.854;-92.408;2022-10-31T05:58:33;100253.46;;;25.58;30.83
37710;BME280;60223;34.854;-92.408;2022-10-31T06:00:57;100251.98;;;25.42;31.22
37710;BME280;60223;34.854;-92.408;2022-10-31T06:03:23;100255.03;;;25.17;31.24
37710;BME280;60223;34.854;-92.408;2022-10-31T06:05:51;100253.23;;;25.55;30.81
37710;BME280;60223;34.854;-92.408;2022-10-31T06:08:16;100249.51;;;25.14;31.44
37710;BME280;60223;34.854;-92.408;2022-10-31T06:10:42;100251.46;;;25.75;30.85
37710;BME280;60223;34.854;-92.408;2022-10-31T06:13:05;100254.53;;;25.28;31.04
37710;BME280;60223;34.854;-92.408;2022-10-31T06:15:33;100256.78;;;25.03;31.64
37710;BME280;60223;34.854;-92.408;2022-10-31T06:18:05;100256.40;;;25.23;31.10
37710;BME280;60223;34.854;-92.408;2022-10-31T06:20:21;100256.06;;;25.09;31.23
37710;BME280;60223;34.854;-92.408;2022-10-31T06:22:50;100256.00;;;25.49;30.84
37710;BME280;60223;34.854;-92.408;2022-10-31T06:25:12;100260.68;;;25.17;31.45
37710;BME280;60223;34.854;-92.408;2022-10-31T06:27:40;100257.38;;;25.32;31.29
37710;BME280;60223;34.854;-92.408;2022-10-31T06:30:05;100256.39;;;25.54;30.74
37710;BME280;60223;34.854;-92.408;2022-10-31T06:32:29;100258.26;;;25.21;31.07
37710;BME280;60223;34.854;-92.408;2022-10-31T06:34:56;100261.42;;;25.45;31.10
37710;BME280;60223;34.854;-92.408;2022-10-31T06:37:22;100267.92;;;24.94;31.60
37710;BME280;60223;34.854;-92.408;2022-10-31T06:39:48;100268.12;;;24.88;31.40
37710;BME280;60223;34.854;-92.408;2022-10-31T06:42:15;100267.33;;;24.73;31.54
37710;BME280;60223;34.854;-92.408;2022-10-31T06:44:39;100263.99;;;24.84;31.63
37710;BME280;60223;34.854;-92.408;2022-10-31T06:47:05;100265.04;;;24.91;31.59
37710;BME280;60223;34.854;-92.408;2022-10-31T06:49:29;100259.36;;;24.95;31.28
37710;BME280;60223;34.854;-92.408;2022-10-31T06:51:53;100255.97;;;25.27;30.91
37710;BME280;60223;34.854;-92.408;2022-10-31T06:54:19;100256.15;;;25.12;31.27
37710;BME280;60223;34.854;-92.408;2022-10-31T06:56:45;100260.89;;;25.35;31.11
37710;BME280;60223;34.854;-92.408;2022-10-31T06:59:09;100264.08;;;24.87;31.23
37710;BME280;60223;34.854;-92.408;2022-10-31T07:01:37;100263.56;;;24.86;31.24
37710;BME280;60223;34.854;-92.408;2022-10-31T07:04:02;100266.72;;;24.71;31.63
37710;BME280;60223;34.854;-92.408;2022-10-31T07:06:28;100268.78;;;24.94;31.21
37710;BME280;60223;34.854;-92.408;2022-10-31T07:08:53;100271.68;;;24.96;31.41
37710;BME280;60223;34.854;-92.408;2022-10-31T07:11:19;100272.53;;;25.05;31.27
37710;BME280;60223;34.854;-92.408;2022-10-31T07:13:44;100270.63;;;24.84;31.47
37710;BME280;60223;34.854;-92.408;2022-10-31T07:16:09;100267.68;;;24.83;31.52
37710;BME280;60223;34.854;-92.408;2022-10-31T07:18:36;100262.29;;;25.37;30.65
37710;BME280;60223;34.854;-92.408;2022-10-31T07:21:00;100261.54;;;25.28;31.00
37710;BME280;60223;34.854;-92.408;2022-10-31T07:23:26;100265.84;;;24.86;31.28
37710;BME280;60223;34.854;-92.408;2022-10-31T07:25:54;100267.74;;;24.56;31.73
37710;BME280;60223;34.854;-92.408;2022-10-31T07:28:18;100267.66;;;24.38;31.70
37710;BME280;60223;34.854;-92.408;2022-10-31T07:30:43;100270.31;;;25.13;31.08
37710;BME280;60223;34.854;-92.408;2022-10-31T07:33:08;100269.83;;;25.15;31.30
37710;BME280;60223;34.854;-92.408;2022-10-31T07:35:34;100274.02;;;25.38;31.11
37710;BME280;60223;34.854;-92.408;2022-10-31T07:40:26;100272.94;;;24.64;31.61
37710;BME280;60223;34.854;-92.408;2022-10-31T07:42:49;100274.51;;;25.02;31.09
37710;BME280;60223;34.854;-92.408;2022-10-31T07:45:16;100273.66;;;25.18;30.97
37710;BME280;60223;34.854;-92.408;2022-10-31T07:47:41;100276.13;;;24.99;31.44
37710;BME280;60223;34.854;-92.408;2022-10-31T07:50:07;100271.20;;;25.30;30.75
37710;BME280;60223;34.854;-92.408;2022-10-31T07:52:32;100272.12;;;24.71;31.51
37710;BME280;60223;34.854;-92.408;2022-10-31T07:54:58;100270.18;;;24.63;31.52
37710;BME280;60223;34.854;-92.408;2022-10-31T07:57:21;100266.77;;;25.13;30.92
37710;BME280;60223;34.854;-92.408;2022-10-31T07:59:50;100266.28;;;24.70;31.01
37710;BME280;60223;34.854;-92.408;2022-10-31T08:02:15;100265.55;;;24.70;31.44
37710;BME280;60223;34.854;-92.408;2022-10-31T08:04:40;100258.60;;;25.52;30.75
37710;BME280;60223;34.854;-92.408;2022-10-31T08:07:06;100262.47;;;24.96;31.07
37710;BME280;60223;34.854;-92.408;2022-10-31T08:09:32;100258.87;;;24.66;31.37
37710;BME280;60223;34.854;-92.408;2022-10-31T08:11:57;100258.92;;;25.10;30.91
37710;BME280;60223;34.854;-92.408;2022-10-31T08:14:23;100261.70;;;24.68;31.61
37710;BME280;60223;34.854;-92.408;2022-10-31T08:16:48;100262.72;;;24.81;31.18
37710;BME280;60223;34.854;-92.408;2022-10-31T08:19:13;100263.40;;;25.47;30.64
37710;BME280;60223;34.854;-92.408;2022-10-31T08:21:39;100267.04;;;24.81;31.11
37710;BME280;60223;34.854;-92.408;2022-10-31T08:24:05;100267.72;;;24.77;30.89
37710;BME280;60223;34.854;-92.408;2022-10-31T08:26:31;100267.61;;;24.50;31.45
37710;BME280;60223;34.854;-92.408;2022-10-31T08:28:56;100267.19;;;24.62;31.25
37710;BME280;60223;34.854;-92.408;2022-10-31T08:31:22;100268.99;;;25.02;31.09
37710;BME280;60223;34.854;-92.408;2022-10-31T08:33:48;100265.15;;;24.69;31.20
37710;BME280;60223;34.854;-92.408;2022-10-31T08:36:13;100263.63;;;24.69;31.20
37710;BME280;60223;34.854;-92.408;2022-10-31T08:38:39;100261.87;;;24.51;31.57
37710;BME280;60223;34.854;-92.408;2022-10-31T08:41:04;100260.24;;;24.96;31.07
37710;BME280;60223;34.854;-92.408;2022-10-31T08:43:30;100259.63;;;24.52;31.34
37710;BME280;60223;34.854;-92.408;2022-10-31T08:48:20;100263.59;;;24.99;31.01
37710;BME280;60223;34.854;-92.408;2022-10-31T08:50:44;100264.96;;;25.01;30.94
37710;BME280;60223;34.854;-92.408;2022-10-31T08:53:13;100262.78;;;24.45;31.52
37710;BME280;60223;34.854;-92.408;2022-10-31T08:55:39;100268.18;;;24.97;30.75
37710;BME280;60223;34.854;-92.408;2022-10-31T08:58:03;100266.91;;;24.98;30.94
37710;BME280;60223;34.854;-92.408;2022-10-31T09:00:29;100265.53;;;24.69;31.19
37710;BME280;60223;34.854;-92.408;2022-10-31T09:02:57;100266.52;;;25.09;30.79
37710;BME280;60223;34.854;-92.408;2022-10-31T09:05:20;100267.27;;;24.52;31.08
37710;BME280;60223;34.854;-92.408;2022-10-31T09:10:09;100271.62;;;24.48;31.12
37710;BME280;60223;34.854;-92.408;2022-10-31T09:12:36;100273.13;;;25.06;30.78
37710;BME280;60223;34.854;-92.408;2022-10-31T09:15:03;100267.67;;;25.26;30.30
37710;BME280;60223;34.854;-92.408;2022-10-31T09:17:29;100271.01;;;24.68;31.12
37710;BME280;60223;34.854;-92.408;2022-10-31T09:19:54;100272.70;;;24.56;31.25
37710;BME280;60223;34.854;-92.408;2022-10-31T09:22:21;100272.39;;;24.82;30.86
37710;BME280;60223;34.854;-92.408;2022-10-31T09:24:45;100271.04;;;24.54;30.96
37710;BME280;60223;34.854;-92.408;2022-10-31T09:27:10;100278.54;;;24.16;31.31
37710;BME280;60223;34.854;-92.408;2022-10-31T09:29:34;100279.00;;;25.07;30.71
37710;BME280;60223;34.854;-92.408;2022-10-31T09:32:02;100280.47;;;24.85;30.91
37710;BME280;60223;34.854;-92.408;2022-10-31T09:34:27;100284.10;;;24.89;30.81
37710;BME280;60223;34.854;-92.408;2022-10-31T09:36:50;100286.30;;;24.27;31.25
37710;BME280;60223;34.854;-92.408;2022-10-31T09:39:19;100285.89;;;24.20;31.48
37710;BME280;60223;34.854;-92.408;2022-10-31T09:42:04;100292.48;;;24.68;30.74
37710;BME280;60223;34.854;-92.408;2022-10-31T09:44:14;100296.64;;;24.40;31.18
37710;BME280;60223;34.854;-92.408;2022-10-31T09:46:42;100299.11;;;24.78;30.79
37710;BME280;60223;34.854;-92.408;2022-10-31T09:49:19;100301.54;;;24.49;31.09
37710;BME280;60223;34.854;-92.408;2022-10-31T09:51:29;100304.09;;;24.43;30.91
37710;BME280;60223;34.854;-92.408;2022-10-31T09:53:56;100304.03;;;24.99;30.47
37710;BME280;60223;34.854;-92.408;2022-10-31T09:56:18;100309.75;;;24.54;31.00
37710;BME280;60223;34.854;-92.408;2022-10-31T09:58:46;100314.55;;;24.53;31.00
37710;BME280;60223;34.854;-92.408;2022-10-31T10:01:14;100314.23;;;24.62;30.92
37710;BME280;60223;34.854;-92.408;2022-10-31T10:03:39;100316.55;;;24.52;30.92
37710;BME280;60223;34.854;-92.408;2022-10-31T10:06:09;100319.23;;;24.47;31.02
37710;BME280;60223;34.854;-92.408;2022-10-31T10:08:30;100319.22;;;24.86;30.65
37710;BME280;60223;34.854;-92.408;2022-10-31T10:10:55;100319.28;;;24.02;31.51
37710;BME280;60223;34.854;-92.408;2022-10-31T10:13:30;100321.48;;;24.34;31.13
37710;BME280;60223;34.854;-92.408;2022-10-31T10:15:55;100322.56;;;24.67;30.75
37710;BME280;60223;34.854;-92.408;2022-10-31T10:18:17;100326.20;;;24.49;30.66
37710;BME280;60223;34.854;-92.408;2022-10-31T10:20:41;100328.05;;;24.67;30.73
37710;BME280;60223;34.854;-92.408;2022-10-31T10:25:28;100326.44;;;24.76;30.56
37710;BME280;60223;34.854;-92.408;2022-10-31T10:30:19;100335.05;;;24.80;30.56
37710;BME280;60223;34.854;-92.408;2022-10-31T10:32:46;100334.59;;;24.43;30.64
37710;BME280;60223;34.854;-92.408;2022-10-31T10:35:17;100336.18;;;24.44;30.88
37710;BME280;60223;34.854;-92.408;2022-10-31T10:37:36;100338.46;;;24.34;30.98
37710;BME280;60223;34.854;-92.408;2022-10-31T10:40:06;100339.64;;;24.58;30.69
37710;BME280;60223;34.854;-92.408;2022-10-31T10:42:28;100344.32;;;24.76;30.48
37710;BME280;60223;34.854;-92.408;2022-10-31T10:44:53;100349.37;;;24.60;30.62
37710;BME280;60223;34.854;-92.408;2022-10-31T10:47:17;100349.62;;;24.49;30.74
37710;BME280;60223;34.854;-92.408;2022-10-31T10:49:43;100351.16;;;24.12;30.84
37710;BME280;60223;34.854;-92.408;2022-10-31T10:52:13;100350.95;;;24.55;30.63
37710;BME280;60223;34.854;-92.408;2022-10-31T10:54:42;100351.13;;;24.44;30.76
37710;BME280;60223;34.854;-92.408;2022-10-31T10:57:06;100354.21;;;24.45;30.70
37710;BME280;60223;34.854;-92.408;2022-10-31T10:59:26;100358.22;;;24.69;30.50
37710;BME280;60223;34.854;-92.408;2022-10-31T11:01:52;100357.71;;;24.46;30.70
37710;BME280;60223;34.854;-92.408;2022-10-31T11:04:25;100356.56;;;24.93;30.69
37710;BME280;60223;34.854;-92.408;2022-10-31T11:09:14;100356.70;;;24.14;31.00
37710;BME280;60223;34.854;-92.408;2022-10-31T11:11:33;100361.57;;;24.63;30.74
37710;BME280;60223;34.854;-92.408;2022-10-31T11:14:00;100364.96;;;23.94;31.19
37710;BME280;60223;34.854;-92.408;2022-10-31T11:16:29;100364.60;;;24.50;30.62
37710;BME280;60223;34.854;-92.408;2022-10-31T11:18:49;100366.65;;;24.49;30.63
37710;BME280;60223;34.854;-92.408;2022-10-31T11:21:21;100368.61;;;24.20;30.89
37710;BME280;60223;34.854;-92.408;2022-10-31T11:23:42;100371.22;;;24.44;30.63
37710;BME280;60223;34.854;-92.408;2022-10-31T11:26:06;100372.34;;;24.19;30.84
37710;BME280;60223;34.854;-92.408;2022-10-31T11:28:33;100374.30;;;23.91;31.14
37710;BME280;60223;34.854;-92.408;2022-10-31T11:31:01;100375.02;;;24.17;30.87
37710;BME280;60223;34.854;-92.408;2022-10-31T11:33:27;100372.03;;;24.43;30.56
37710;BME280;60223;34.854;-92.408;2022-10-31T11:35:52;100374.08;;;24.28;30.63
37710;BME280;60223;34.854;-92.408;2022-10-31T11:38:19;100376.71;;;24.00;30.99
37710;BME280;60223;34.854;-92.408;2022-10-31T11:45:32;100383.09;;;24.45;30.47
37710;BME280;60223;34.854;-92.408;2022-10-31T11:47:59;100390.50;;;24.46;30.54
37710;BME280;60223;34.854;-92.408;2022-10-31T11:50:27;100397.71;;;24.03;31.34
37710;BME280;60223;34.854;-92.408;2022-10-31T11:52:49;100402.28;;;24.05;31.05
37710;BME280;60223;34.854;-92.408;2022-10-31T11:57:50;100403.23;;;24.23;30.97
37710;BME280;60223;34.854;-92.408;2022-10-31T12:02:32;100409.41;;;23.45;32.00
37710;BME280;60223;34.854;-92.408;2022-10-31T12:05:02;100412.22;;;24.33;31.01
37710;BME280;60223;34.854;-92.408;2022-10-31T12:07:24;100414.90;;;23.96;31.48
37710;BME280;60223;34.854;-92.408;2022-10-31T12:14:44;100424.23;;;23.72;31.84
37710;BME280;60223;34.854;-92.408;2022-10-31T12:17:14;100425.05;;;23.89;31.55
37710;BME280;60223;34.854;-92.408;2022-10-31T12:19:38;100421.50;;;24.13;31.28
37710;BME280;60223;34.854;-92.408;2022-10-31T12:24:34;100428.02;;;23.52;31.92
37710;BME280;60223;34.854;-92.408;2022-10-31T12:26:57;100429.48;;;23.89;31.51
37710;BME280;60223;34.854;-92.408;2022-10-31T12:29:26;100437.56;;;23.65;31.86
37710;BME280;60223;34.854;-92.408;2022-10-31T12:31:49;100444.37;;;24.05;31.41
37710;BME280;60223;34.854;-92.408;2022-10-31T12:36:39;100449.20;;;23.88;31.51
37710;BME280;60223;34.854;-92.408;2022-10-31T12:39:09;100453.99;;;24.36;31.49
37710;BME280;60223;34.854;-92.408;2022-10-31T12:41:31;100459.94;;;23.75;31.76
37710;BME280;60223;34.854;-92.408;2022-10-31T12:43:52;100452.46;;;23.82;31.62
37710;BME280;60223;34.854;-92.408;2022-10-31T12:51:06;100467.66;;;23.83;31.93
37710;BME280;60223;34.854;-92.408;2022-10-31T12:53:40;100469.52;;;23.68;31.62
37710;BME280;60223;34.854;-92.408;2022-10-31T12:56:07;100469.99;;;23.62;31.72
37710;BME280;60223;34.854;-92.408;2022-10-31T13:05:41;100479.54;;;23.54;31.85
37710;BME280;60223;34.854;-92.408;2022-10-31T13:08:08;100483.76;;;23.55;31.85
37710;BME280;60223;34.854;-92.408;2022-10-31T13:10:36;100484.31;;;24.52;31.04
37710;BME280;60223;34.854;-92.408;2022-10-31T13:12:58;100487.12;;;24.07;31.80
37710;BME280;60223;34.854;-92.408;2022-10-31T13:15:24;100495.81;;;24.11;31.48
37710;BME280;60223;34.854;-92.408;2022-10-31T13:17:47;100499.31;;;24.04;31.25
37710;BME280;60223;34.854;-92.408;2022-10-31T13:20:22;100497.84;;;23.41;31.90
37710;BME280;60223;34.854;-92.408;2022-10-31T13:22:39;100498.43;;;23.96;31.35
37710;BME280;60223;34.854;-92.408;2022-10-31T13:25:10;100505.38;;;23.88;31.46
37710;BME280;60223;34.854;-92.408;2022-10-31T13:27:39;100512.44;;;24.20;31.10
37710;BME280;60223;34.854;-92.408;2022-10-31T13:30:02;100513.31;;;23.46;31.85
37710;BME280;60223;34.854;-92.408;2022-10-31T13:32:20;100515.13;;;23.81;31.49
37710;BME280;60223;34.854;-92.408;2022-10-31T13:34:51;100521.25;;;24.19;31.36